Time;durP1;ratioP1;P1;durP2;ratioP2;P2;SDS_P1;SDS_P2;PMS_P1;PMS_P2;Temp;Humidity;BMP_temperature;BMP_pressure;BME280_temperature;BME280_humidity;BME280_pressure;Samples;Min_cycle;Max_cycle;Signal;HPM_P1;HPM_P2
2023/09/27 00:00:51;;;;;;;7.57;6.97;;;12.00;99.90;;;;;;5012928;28;20513;-65
2023/09/27 00:03:18;;;;;;;8.70;7.87;;;12.00;99.90;;;;;;5013154;28;20492;-65
2023/09/27 00:05:45;;;;;;;9.40;8.50;;;12.00;99.90;;;;;;5013415;28;20461;-65
2023/09/27 00:08:12;;;;;;;7.63;6.87;;;12.00;99.90;;;;;;5013441;28;20474;-65
2023/09/27 00:10:39;;;;;;;8.50;6.73;;;12.00;99.90;;;;;;5013181;28;20549;-65
2023/09/27 00:13:07;;;;;;;8.10;7.30;;;11.90;99.90;;;;;;5012827;28;20442;-65
2023/09/27 00:15:34;;;;;;;8.60;7.90;;;11.90;99.90;;;;;;5013744;28;20460;-67
2023/09/27 00:18:01;;;;;;;7.80;7.20;;;11.90;99.90;;;;;;5013298;28;20536;-65
2023/09/27 00:20:27;;;;;;;7.87;7.17;;;11.90;99.90;;;;;;5013108;28;20488;-65
2023/09/27 00:22:55;;;;;;;9.33;7.80;;;11.90;99.90;;;;;;5012679;28;20551;-65
2023/09/27 00:25:22;;;;;;;8.47;7.77;;;11.80;99.90;;;;;;5012972;28;20453;-67
2023/09/27 00:27:48;;;;;;;7.30;6.80;;;11.80;99.90;;;;;;5012584;28;20461;-67
2023/09/27 00:30:17;;;;;;;7.80;7.10;;;11.80;99.90;;;;;;5012793;28;20473;-65
2023/09/27 00:32:45;;;;;;;8.87;7.97;;;11.80;99.90;;;;;;5012958;28;20838;-65
2023/09/27 00:35:18;;;;;;;8.53;7.73;;;11.80;99.90;;;;;;5012720;28;20457;-65
2023/09/27 00:37:45;;;;;;;8.83;7.93;;;11.80;99.90;;;;;;5012902;28;20457;-67
2023/09/27 00:40:14;;;;;;;7.73;7.10;;;11.80;99.90;;;;;;5012484;28;20499;-67
2023/09/27 00:42:42;;;;;;;7.70;7.10;;;11.80;99.90;;;;;;5012583;28;20806;-65
2023/09/27 00:45:10;;;;;;;9.20;6.80;;;11.80;99.90;;;;;;5012399;28;20484;-65
2023/09/27 00:47:39;;;;;;;10.97;7.80;;;11.70;99.90;;;;;;5012421;28;20476;-65
2023/09/27 00:50:08;;;;;;;9.77;8.93;;;11.70;99.90;;;;;;5012394;28;20544;-67
2023/09/27 00:52:36;;;;;;;7.87;6.97;;;11.70;99.90;;;;;;5012320;28;20468;-67
2023/09/27 00:55:03;;;;;;;7.80;7.20;;;11.70;99.90;;;;;;5012188;28;20532;-67
2023/09/27 00:57:30;;;;;;;8.17;7.20;;;11.70;99.90;;;;;;5012706;28;20579;-67
2023/09/27 00:59:59;;;;;;;8.40;7.70;;;11.70;99.90;;;;;;5012383;28;20481;-68
2023/09/27 01:02:26;;;;;;;7.67;6.90;;;11.70;99.90;;;;;;5012295;28;20450;-68
2023/09/27 01:04:54;;;;;;;8.70;7.50;;;11.70;99.90;;;;;;5012193;28;20453;-67
2023/09/27 01:07:22;;;;;;;9.87;9.07;;;11.60;99.90;;;;;;5012104;28;20453;-67
2023/09/27 01:09:49;;;;;;;8.50;7.90;;;11.60;99.90;;;;;;5012311;28;20473;-68
2023/09/27 01:12:16;;;;;;;10.20;9.00;;;11.60;99.90;;;;;;5012092;28;20951;-68
2023/09/27 01:14:43;;;;;;;9.53;8.70;;;11.60;99.90;;;;;;5011904;28;20452;-67
2023/09/27 01:17:11;;;;;;;8.27;7.67;;;11.60;99.90;;;;;;5012117;28;20457;-67
2023/09/27 01:19:40;;;;;;;8.27;7.50;;;11.60;99.90;;;;;;5011565;28;20552;-64
2023/09/27 01:22:08;;;;;;;8.50;7.57;;;11.60;99.90;;;;;;5011809;28;20467;-65
2023/09/27 01:24:37;;;;;;;9.07;8.17;;;11.50;99.90;;;;;;5011518;28;20514;-65
2023/09/27 01:27:09;;;;;;;8.40;7.60;;;11.50;99.90;;;;;;5012020;28;20450;-64
2023/09/27 01:29:36;;;;;;;9.40;8.50;;;11.50;99.90;;;;;;5011714;28;21273;-64
2023/09/27 01:32:02;;;;;;;9.00;7.33;;;11.40;99.90;;;;;;5011570;28;20449;-64
2023/09/27 01:34:29;;;;;;;8.40;7.70;;;11.40;99.90;;;;;;5011569;28;20448;-64
2023/09/27 01:36:57;;;;;;;8.20;7.50;;;11.40;99.90;;;;;;5012049;28;20564;-67
2023/09/27 01:39:25;;;;;;;9.73;8.83;;;11.40;99.90;;;;;;5011591;28;20957;-67
2023/09/27 01:41:53;;;;;;;10.20;8.53;;;11.40;99.90;;;;;;5010828;28;20492;-64
2023/09/27 01:44:20;;;;;;;9.83;9.10;;;11.40;99.90;;;;;;5011293;28;20944;-67
2023/09/27 01:46:47;;;;;;;9.57;8.73;;;11.40;99.90;;;;;;5011788;28;20446;-65
2023/09/27 01:49:14;;;;;;;8.60;7.90;;;11.40;99.90;;;;;;5011416;28;20564;-64
2023/09/27 01:51:40;;;;;;;9.70;8.90;;;11.40;99.90;;;;;;5011917;28;20449;-64
2023/09/27 01:54:07;;;;;;;9.83;8.80;;;11.50;99.90;;;;;;5011290;28;20548;-64
2023/09/27 01:56:34;;;;;;;8.90;8.10;;;11.50;99.90;;;;;;5011650;28;20532;-64
2023/09/27 01:59:03;;;;;;;9.87;9.07;;;11.50;99.90;;;;;;5011631;28;20473;-64
2023/09/27 02:01:29;;;;;;;9.63;8.73;;;11.60;99.90;;;;;;5011444;28;20509;-67
2023/09/27 02:03:56;;;;;;;10.50;9.50;;;11.60;99.90;;;;;;5011115;28;20449;-64
2023/09/27 02:06:24;;;;;;;9.30;8.50;;;11.60;99.90;;;;;;5011573;28;20467;-64
2023/09/27 02:08:50;;;;;;;10.43;9.47;;;11.70;99.90;;;;;;5011026;28;20473;-64
2023/09/27 02:11:19;;;;;;;14.57;12.27;;;11.70;99.90;;;;;;5011591;28;20507;-64
2023/09/27 02:13:46;;;;;;;10.87;9.73;;;11.80;99.90;;;;;;5008895;28;20511;-64
2023/09/27 02:16:14;;;;;;;12.70;9.77;;;11.80;99.90;;;;;;5008884;28;20450;-64
2023/09/27 02:18:41;;;;;;;12.27;11.00;;;11.80;99.90;;;;;;5012592;28;20449;-64
2023/09/27 02:21:08;;;;;;;13.60;12.30;;;11.80;99.90;;;;;;5003421;28;20485;-64
2023/09/27 02:23:35;;;;;;;9.83;8.83;;;11.90;99.90;;;;;;4995096;28;20447;-64
2023/09/27 02:26:02;;;;;;;11.90;8.67;;;11.90;99.90;;;;;;4993609;28;20496;-64
2023/09/27 02:28:30;;;;;;;10.97;9.57;;;11.90;99.90;;;;;;4993598;28;20449;-64
2023/09/27 02:30:58;;;;;;;12.87;11.67;;;12.00;99.90;;;;;;4993562;28;20454;-64
2023/09/27 02:33:27;;;;;;;14.80;13.00;;;12.00;99.90;;;;;;4993347;28;20453;-64
2023/09/27 02:35:54;;;;;;;14.47;13.17;;;12.00;99.90;;;;;;4993824;28;20451;-65
2023/09/27 02:38:21;;;;;;;15.53;13.93;;;12.10;99.90;;;;;;4993615;28;20462;-64
2023/09/27 02:40:48;;;;;;;13.70;12.07;;;12.10;99.90;;;;;;5021982;23;20608;-64
2023/09/27 02:43:15;;;;;;;14.07;12.77;;;12.20;99.90;;;;;;5014013;28;20548;-64
2023/09/27 02:45:43;;;;;;;12.30;11.10;;;12.10;99.90;;;;;;5008578;28;20456;-63
2023/09/27 02:48:10;;;;;;;14.97;12.43;;;12.20;99.90;;;;;;4995409;28;20820;-63
2023/09/27 02:50:38;;;;;;;12.33;11.03;;;12.20;99.90;;;;;;4995305;28;20829;-64
2023/09/27 02:53:05;;;;;;;12.53;11.23;;;12.20;99.90;;;;;;4994955;28;20445;-64
2023/09/27 02:55:32;;;;;;;13.23;11.77;;;12.20;99.90;;;;;;4995140;28;20450;-63
2023/09/27 02:57:59;;;;;;;13.53;12.23;;;12.30;99.90;;;;;;4995051;28;20458;-64
2023/09/27 03:00:26;;;;;;;12.43;11.13;;;12.30;99.90;;;;;;4995106;28;20462;-64
2023/09/27 03:02:53;;;;;;;13.30;10.80;;;12.20;99.90;;;;;;4994774;28;20952;-64
2023/09/27 03:05:20;;;;;;;12.43;11.07;;;12.20;99.90;;;;;;4995022;28;20456;-64
2023/09/27 03:07:48;;;;;;;12.80;11.60;;;12.20;99.90;;;;;;4994940;28;20451;-64
2023/09/27 03:10:16;;;;;;;12.97;11.70;;;12.20;99.90;;;;;;4993522;28;20990;-64
2023/09/27 03:12:43;;;;;;;12.83;11.70;;;12.20;99.90;;;;;;4994858;28;20453;-64
2023/09/27 03:15:11;;;;;;;11.77;10.57;;;12.20;99.90;;;;;;4994935;28;20474;-64
2023/09/27 03:17:38;;;;;;;14.80;11.23;;;12.20;99.90;;;;;;4994749;28;20450;-64
2023/09/27 03:20:13;;;;;;;12.23;10.90;;;12.20;99.90;;;;;;4994099;28;20466;-64
2023/09/27 03:22:40;;;;;;;11.83;10.90;;;12.20;99.90;;;;;;4994642;28;20442;-64
2023/09/27 03:25:09;;;;;;;12.27;11.07;;;12.10;99.90;;;;;;4994507;28;20469;-64
2023/09/27 03:27:36;;;;;;;15.73;12.50;;;12.10;99.90;;;;;;4994725;28;20439;-64
2023/09/27 03:30:05;;;;;;;12.47;11.20;;;12.10;99.90;;;;;;4993896;28;20478;-64
2023/09/27 03:32:32;;;;;;;12.07;10.87;;;12.10;99.90;;;;;;4994500;28;20506;-64
2023/09/27 03:34:59;;;;;;;17.23;11.60;;;12.00;99.90;;;;;;4994259;28;20474;-64
2023/09/27 03:37:26;;;;;;;11.10;10.10;;;12.00;99.90;;;;;;4994295;28;20530;-64
2023/09/27 03:39:53;;;;;;;11.40;10.30;;;12.00;99.90;;;;;;4993712;28;20502;-64
2023/09/27 03:42:21;;;;;;;11.90;9.63;;;11.90;99.90;;;;;;4994544;28;20497;-64
2023/09/27 03:44:48;;;;;;;12.30;11.10;;;11.90;99.90;;;;;;4993927;28;20464;-64
2023/09/27 03:47:15;;;;;;;10.40;9.40;;;11.90;99.90;;;;;;4994300;28;20451;-64
2023/09/27 03:49:43;;;;;;;10.80;9.80;;;11.90;99.90;;;;;;5005747;28;20480;-64
2023/09/27 03:52:10;;;;;;;11.20;10.10;;;11.90;99.90;;;;;;5007475;28;20537;-64
2023/09/27 03:54:37;;;;;;;9.30;8.50;;;11.80;99.90;;;;;;5008633;28;20546;-64
2023/09/27 03:57:04;;;;;;;10.17;9.20;;;11.80;99.90;;;;;;4998551;28;20983;-64
2023/09/27 03:59:32;;;;;;;10.47;9.20;;;11.70;99.90;;;;;;5007675;28;20481;-64
2023/09/27 04:01:59;;;;;;;10.63;9.60;;;11.70;99.90;;;;;;4998631;28;20490;-64
2023/09/27 04:04:26;;;;;;;11.93;10.73;;;11.70;99.90;;;;;;5001292;28;20446;-64
2023/09/27 04:06:53;;;;;;;13.73;8.83;;;11.70;99.90;;;;;;4993568;28;20867;-64
2023/09/27 04:09:19;;;;;;;9.73;8.83;;;11.60;99.90;;;;;;4993532;28;20532;-64
2023/09/27 04:11:46;;;;;;;11.23;10.20;;;11.60;99.90;;;;;;4993666;28;21066;-63
2023/09/27 04:14:13;;;;;;;9.57;8.63;;;11.60;99.90;;;;;;4993464;28;20451;-64
2023/09/27 04:16:42;;;;;;;10.00;9.00;;;11.60;99.90;;;;;;4993723;28;20839;-64
2023/09/27 04:19:09;;;;;;;10.23;9.33;;;11.60;99.90;;;;;;4993109;28;20540;-64
2023/09/27 04:21:36;;;;;;;9.77;8.77;;;11.60;99.90;;;;;;4992790;28;20485;-64
2023/09/27 04:24:04;;;;;;;10.23;9.23;;;11.60;99.90;;;;;;4993316;28;20964;-63
2023/09/27 04:26:31;;;;;;;10.57;9.53;;;11.60;99.90;;;;;;4993629;28;20458;-64
2023/09/27 04:28:59;;;;;;;9.30;8.40;;;11.60;99.90;;;;;;4993361;28;20459;-64
2023/09/27 04:31:26;;;;;;;9.63;8.67;;;11.60;99.90;;;;;;4993230;28;20454;-64
2023/09/27 04:33:55;;;;;;;11.17;10.17;;;11.60;99.90;;;;;;4992870;28;20914;-64
2023/09/27 04:36:21;;;;;;;10.00;9.10;;;11.60;99.90;;;;;;4993336;28;20880;-64
2023/09/27 04:38:49;;;;;;;9.67;8.70;;;11.60;99.90;;;;;;4993360;28;21012;-64
2023/09/27 04:41:17;;;;;;;9.43;8.60;;;11.60;99.90;;;;;;4991762;28;20497;-64
2023/09/27 04:43:44;;;;;;;10.73;8.83;;;11.60;99.90;;;;;;4992754;28;20458;-64
2023/09/27 04:46:12;;;;;;;9.83;9.03;;;11.60;99.90;;;;;;4993000;28;20541;-64
2023/09/27 04:48:39;;;;;;;12.27;9.10;;;11.60;99.90;;;;;;4992706;28;20454;-64
2023/09/27 04:51:08;;;;;;;14.30;9.97;;;11.60;99.90;;;;;;4992841;28;20562;-64
2023/09/27 04:53:37;;;;;;;11.33;10.13;;;11.60;99.90;;;;;;4992716;28;20504;-64
2023/09/27 04:56:04;;;;;;;13.60;10.50;;;11.60;99.90;;;;;;4992814;28;20520;-65
2023/09/27 04:58:31;;;;;;;14.30;9.53;;;11.60;99.90;;;;;;4992868;28;20454;-64
2023/09/27 05:00:58;;;;;;;18.07;9.40;;;11.60;99.90;;;;;;4992600;28;20474;-64
2023/09/27 05:03:25;;;;;;;11.50;10.50;;;11.60;99.90;;;;;;4992747;28;20509;-64
2023/09/27 05:05:52;;;;;;;10.43;9.43;;;11.60;99.90;;;;;;4992699;28;20453;-64
2023/09/27 05:08:21;;;;;;;10.60;9.50;;;11.70;99.90;;;;;;4992710;28;20450;-64
2023/09/27 05:10:47;;;;;;;15.77;10.70;;;11.70;99.90;;;;;;4992500;28;20482;-64
2023/09/27 05:13:14;;;;;;;10.27;9.27;;;11.70;99.90;;;;;;4992419;28;20454;-64
2023/09/27 05:15:41;;;;;;;11.43;10.10;;;11.70;99.90;;;;;;4992551;28;20543;-64
2023/09/27 05:18:08;;;;;;;10.10;9.20;;;11.70;99.90;;;;;;4992538;28;20451;-64
2023/09/27 05:20:36;;;;;;;12.90;11.60;;;11.70;99.90;;;;;;4992605;28;20476;-64
2023/09/27 05:23:04;;;;;;;11.70;9.87;;;11.70;99.90;;;;;;4992206;28;21269;-64
2023/09/27 05:25:32;;;;;;;12.40;10.63;;;11.70;99.90;;;;;;4992259;28;20453;-64
2023/09/27 05:27:59;;;;;;;9.93;9.00;;;11.70;99.90;;;;;;4992278;28;20921;-64
2023/09/27 05:30:26;;;;;;;11.13;10.03;;;11.70;99.90;;;;;;4992309;28;20471;-64
2023/09/27 05:32:53;;;;;;;12.43;11.23;;;11.70;99.90;;;;;;4992037;28;20810;-64
2023/09/27 05:35:20;;;;;;;13.00;9.67;;;11.70;99.90;;;;;;4992231;28;20446;-64
2023/09/27 05:37:47;;;;;;;20.67;11.27;;;11.70;99.90;;;;;;4992324;28;20545;-64
2023/09/27 05:40:14;;;;;;;11.63;8.87;;;11.80;99.90;;;;;;4992200;28;20515;-64
2023/09/27 05:42:42;;;;;;;11.20;8.70;;;11.90;99.90;;;;;;4991954;28;20860;-64
2023/09/27 05:45:11;;;;;;;16.90;8.57;;;11.90;99.90;;;;;;4992230;28;20479;-64
2023/09/27 05:47:39;;;;;;;7.83;6.93;;;11.90;99.90;;;;;;4992328;28;20458;-64
2023/09/27 05:50:08;;;;;;;6.80;6.20;;;12.00;99.90;;;;;;4992170;28;21057;-64
2023/09/27 05:52:35;;;;;;;8.53;6.90;;;12.00;99.90;;;;;;4991587;28;20817;-64
2023/09/27 05:55:02;;;;;;;6.93;6.30;;;12.10;99.90;;;;;;4991752;28;20537;-64
2023/09/27 05:57:29;;;;;;;6.90;6.30;;;12.10;99.90;;;;;;4991479;28;20509;-64
2023/09/27 05:59:58;;;;;;;5.90;5.40;;;12.10;99.90;;;;;;4991681;28;20506;-64
2023/09/27 06:02:30;;;;;;;8.60;6.03;;;12.10;99.90;;;;;;4991893;28;20481;-64
2023/09/27 06:04:59;;;;;;;6.20;5.80;;;12.20;99.90;;;;;;4991726;28;20859;-64
2023/09/27 06:07:25;;;;;;;5.60;5.20;;;12.20;99.90;;;;;;4991848;28;20454;-64
2023/09/27 06:09:52;;;;;;;6.93;6.33;;;12.20;99.90;;;;;;4991367;28;20478;-64
2023/09/27 06:12:19;;;;;;;7.57;6.80;;;12.20;99.90;;;;;;4992045;28;20454;-64
2023/09/27 06:14:46;;;;;;;8.13;7.43;;;12.20;99.90;;;;;;4991552;28;20824;-64
2023/09/27 06:17:17;;;;;;;8.33;7.63;;;12.30;99.90;;;;;;4991809;28;20459;-64
2023/09/27 06:19:44;;;;;;;7.90;7.10;;;12.30;99.90;;;;;;4991820;28;20470;-64
2023/09/27 06:22:13;;;;;;;7.23;6.53;;;12.30;99.90;;;;;;4991371;28;20573;-64
2023/09/27 06:24:40;;;;;;;7.50;6.80;;;12.40;99.90;;;;;;4991678;28;21045;-64
2023/09/27 06:27:07;;;;;;;8.20;7.33;;;12.40;99.90;;;;;;4991610;28;20997;-64
2023/09/27 06:29:34;;;;;;;8.63;7.90;;;12.40;99.90;;;;;;4991727;28;20840;-64
2023/09/27 06:32:01;;;;;;;8.10;7.20;;;12.50;99.90;;;;;;4991726;28;20450;-64
2023/09/27 06:34:29;;;;;;;8.53;7.63;;;12.50;99.90;;;;;;4991451;28;20469;-64
2023/09/27 06:36:56;;;;;;;10.43;9.43;;;12.50;99.90;;;;;;4991398;28;20550;-64
2023/09/27 06:39:24;;;;;;;9.97;9.13;;;12.60;99.90;;;;;;4991395;28;20479;-64
2023/09/27 06:41:52;;;;;;;9.77;8.80;;;12.60;99.90;;;;;;4991174;28;20512;-64
2023/09/27 06:44:19;;;;;;;10.67;9.60;;;12.70;99.90;;;;;;4991151;28;20538;-64
2023/09/27 06:46:46;;;;;;;13.47;10.20;;;12.70;99.90;;;;;;4991230;28;20450;-64
2023/09/27 06:49:13;;;;;;;12.40;11.07;;;12.70;99.90;;;;;;4990819;28;21108;-64
2023/09/27 06:51:43;;;;;;;12.63;11.43;;;12.80;99.90;;;;;;4991361;28;20453;-64
2023/09/27 06:54:10;;;;;;;13.17;11.47;;;12.80;99.90;;;;;;4991275;28;20505;-64
2023/09/27 06:56:37;;;;;;;14.23;10.83;;;12.80;99.90;;;;;;4991492;28;20447;-64
2023/09/27 06:59:03;;;;;;;12.30;11.03;;;12.90;99.90;;;;;;4991361;28;20455;-64
2023/09/27 07:01:30;;;;;;;13.40;12.00;;;13.00;99.90;;;;;;4991287;28;20457;-64
2023/09/27 07:03:57;;;;;;;14.33;12.60;;;13.00;99.90;;;;;;4991441;28;20547;-64
2023/09/27 07:06:24;;;;;;;14.67;13.17;;;13.10;99.90;;;;;;4994851;28;20815;-66
2023/09/27 07:08:57;;;;;;;13.37;11.30;;;13.10;99.90;;;;;;4995111;28;20446;-66
2023/09/27 07:11:25;;;;;;;12.60;11.30;;;13.20;99.90;;;;;;4995066;28;20462;-66
2023/09/27 07:13:52;;;;;;;18.43;14.20;;;13.20;99.90;;;;;;4994649;28;20457;-66
2023/09/27 07:16:21;;;;;;;13.63;12.40;;;13.30;99.90;;;;;;4994912;28;20533;-66
2023/09/27 07:18:49;;;;;;;15.30;13.83;;;13.30;99.90;;;;;;4994671;28;20975;-66
2023/09/27 07:21:17;;;;;;;15.30;13.80;;;13.40;99.90;;;;;;4994728;28;20477;-66
2023/09/27 07:23:44;;;;;;;14.07;12.57;;;13.40;99.90;;;;;;4993021;28;20495;-66
2023/09/27 07:26:12;;;;;;;13.57;12.17;;;13.50;99.90;;;;;;4994217;28;20542;-66
2023/09/27 07:28:39;;;;;;;14.63;13.10;;;13.50;99.90;;;;;;4994554;28;20538;-66
2023/09/27 07:31:06;;;;;;;15.27;13.77;;;13.60;99.90;;;;;;4994049;28;21072;-66
2023/09/27 07:33:33;;;;;;;21.60;13.70;;;13.60;99.90;;;;;;4993963;28;20476;-66
2023/09/27 07:36:00;;;;;;;26.60;16.40;;;13.70;99.90;;;;;;4994212;28;20486;-66
2023/09/27 07:38:27;;;;;;;16.90;15.10;;;13.70;99.90;;;;;;4994385;28;20455;-66
2023/09/27 07:40:54;;;;;;;16.17;13.40;;;13.70;99.90;;;;;;4993486;28;21016;-66
2023/09/27 07:43:22;;;;;;;13.87;12.33;;;13.80;99.90;;;;;;4992274;28;20483;-66
2023/09/27 07:45:49;;;;;;;17.20;12.83;;;13.80;99.90;;;;;;4992494;28;20455;-66
2023/09/27 07:48:18;;;;;;;15.90;12.40;;;13.80;99.90;;;;;;5007717;28;20446;-66
2023/09/27 07:50:45;;;;;;;16.50;13.70;;;13.80;99.90;;;;;;5012847;28;21008;-66
2023/09/27 07:53:12;;;;;;;17.43;14.33;;;13.80;99.90;;;;;;5012982;28;20442;-66
2023/09/27 07:55:43;;;;;;;23.27;14.70;;;13.80;99.90;;;;;;5013194;28;20455;-64
2023/09/27 07:58:12;;;;;;;15.97;14.30;;;13.80;99.90;;;;;;5013136;28;20453;-63
2023/09/27 08:00:40;;;;;;;17.13;13.67;;;13.80;99.90;;;;;;5013318;28;20820;-63
2023/09/27 08:03:08;;;;;;;21.57;14.97;;;13.90;99.90;;;;;;5012899;28;20862;-64
2023/09/27 08:05:42;;;;;;;17.07;14.90;;;13.90;99.90;;;;;;5013316;28;20447;-64
2023/09/27 08:08:10;;;;;;;16.70;14.93;;;14.00;99.90;;;;;;5013054;28;20443;-64
2023/09/27 08:10:43;;;;;;;15.60;14.00;;;14.00;99.90;;;;;;5012545;28;20473;-63
2023/09/27 08:13:12;;;;;;;15.93;14.30;;;14.10;99.90;;;;;;5012717;28;20447;-64
2023/09/27 08:15:42;;;;;;;16.10;14.60;;;14.10;99.90;;;;;;5012405;28;20442;-63
2023/09/27 08:18:09;;;;;;;16.70;15.00;;;14.20;99.90;;;;;;5012729;28;20536;-64
2023/09/27 08:20:36;;;;;;;18.30;15.77;;;14.30;99.90;;;;;;5012534;28;20462;-64
2023/09/27 08:23:03;;;;;;;17.97;16.17;;;14.40;99.90;;;;;;5011330;28;20486;-64
2023/09/27 08:25:30;;;;;;;15.33;13.73;;;14.40;99.90;;;;;;5012485;28;20539;-64
2023/09/27 08:27:57;;;;;;;18.73;16.17;;;14.50;99.90;;;;;;5012855;28;20446;-64
2023/09/27 08:30:24;;;;;;;16.87;15.23;;;14.60;99.90;;;;;;5012593;28;20558;-64
2023/09/27 08:32:52;;;;;;;19.30;17.33;;;14.70;99.90;;;;;;5012533;28;20896;-64
2023/09/27 08:35:19;;;;;;;19.67;17.73;;;14.80;99.90;;;;;;5012437;28;20451;-64
2023/09/27 08:37:46;;;;;;;17.83;15.87;;;14.90;99.90;;;;;;5012219;28;20451;-64
2023/09/27 08:40:13;;;;;;;19.67;16.97;;;14.90;99.90;;;;;;5012308;28;20569;-64
2023/09/27 08:42:41;;;;;;;18.50;16.60;;;15.00;99.90;;;;;;5012399;28;20498;-64
2023/09/27 08:45:13;;;;;;;20.60;18.00;;;15.10;99.90;;;;;;5020246;22;20502;-66
2023/09/27 08:47:42;;;;;;;22.43;19.00;;;15.10;99.90;;;;;;4992537;28;20449;-66
2023/09/27 08:50:13;;;;;;;18.30;16.50;;;15.20;99.90;;;;;;4992296;28;20515;-66
2023/09/27 08:52:45;;;;;;;20.80;18.70;;;15.30;99.90;;;;;;4992543;28;20448;-66
2023/09/27 08:55:12;;;;;;;21.40;18.43;;;15.40;99.90;;;;;;4992770;28;20472;-66
2023/09/27 08:57:45;;;;;;;20.67;17.20;;;15.40;99.90;;;;;;4992477;28;20459;-66
2023/09/27 09:00:19;;;;;;;20.20;18.10;;;15.50;99.90;;;;;;4992708;28;20452;-66
2023/09/27 09:02:50;;;;;;;21.60;19.43;;;15.70;99.90;;;;;;4992522;28;20550;-66
2023/09/27 09:05:19;;;;;;;21.67;19.57;;;15.80;99.90;;;;;;4992574;28;20474;-66
2023/09/27 09:07:46;;;;;;;22.00;19.77;;;15.90;99.90;;;;;;4992518;28;20893;-66
2023/09/27 09:10:14;;;;;;;22.40;20.20;;;16.00;99.90;;;;;;4992601;28;20450;-66
2023/09/27 09:12:42;;;;;;;19.27;17.37;;;16.10;99.90;;;;;;4992303;28;20445;-66
2023/09/27 09:15:14;;;;;;;20.50;18.50;;;16.30;99.90;;;;;;4991936;28;21250;-66
2023/09/27 09:17:47;;;;;;;24.10;18.40;;;16.40;99.90;;;;;;4992465;28;20454;-66
2023/09/27 09:20:21;;;;;;;22.37;19.83;;;16.60;99.90;;;;;;4992287;28;20977;-66
2023/09/27 09:22:53;;;;;;;23.90;19.23;;;16.80;99.90;;;;;;4974116;28;20835;-64
2023/09/27 09:25:21;;;;;;;22.63;20.40;;;16.90;99.90;;;;;;4970623;28;20881;-65
2023/09/27 09:28:02;;;;;;;21.10;18.97;;;17.00;99.90;;;;;;4971476;28;20969;-64
2023/09/27 09:30:35;;;;;;;22.43;20.07;;;17.10;99.90;;;;;;4972441;28;20485;-65
2023/09/27 09:33:03;;;;;;;23.70;19.00;;;17.20;99.90;;;;;;4972096;28;20453;-65
2023/09/27 09:35:31;;;;;;;19.17;17.20;;;17.30;99.90;;;;;;4972101;28;20471;-64
2023/09/27 09:38:01;;;;;;;24.33;21.83;;;17.30;99.90;;;;;;4971927;28;20493;-64
2023/09/27 09:40:29;;;;;;;30.87;23.97;;;17.50;99.90;;;;;;4972510;28;20461;-64
2023/09/27 09:42:59;;;;;;;24.17;21.57;;;17.60;99.90;;;;;;4985070;28;20572;-65
2023/09/27 09:45:28;;;;;;;25.73;22.03;;;17.80;99.90;;;;;;4975321;28;20509;-65
2023/09/27 09:47:56;;;;;;;25.00;22.37;;;17.90;99.90;;;;;;4974997;28;20831;-65
2023/09/27 09:50:23;;;;;;;21.97;19.67;;;18.10;99.90;;;;;;4983901;28;20448;-65
2023/09/27 09:52:57;;;;;;;22.57;20.30;;;18.20;99.90;;;;;;4981957;28;20450;-65
2023/09/27 09:55:27;;;;;;;24.57;21.60;;;18.40;99.90;;;;;;4976197;28;20467;-64
2023/09/27 09:57:56;;;;;;;25.03;22.43;;;18.50;99.90;;;;;;4977892;28;20553;-65
2023/09/27 10:00:27;;;;;;;23.07;20.60;;;18.70;99.90;;;;;;4973830;28;20500;-65
2023/09/27 10:03:01;;;;;;;19.60;17.77;;;18.70;99.90;;;;;;4977049;28;21005;-64
2023/09/27 10:05:35;;;;;;;19.43;17.40;;;18.90;99.90;;;;;;4971475;28;20539;-65
2023/09/27 10:08:02;;;;;;;22.37;20.20;;;19.00;99.90;;;;;;4975307;28;20459;-65
2023/09/27 10:10:31;;;;;;;19.17;17.33;;;19.10;99.90;;;;;;4983224;28;20452;-64
2023/09/27 10:12:59;;;;;;;17.30;15.50;;;19.30;99.90;;;;;;4983312;28;20532;-65
2023/09/27 10:15:27;;;;;;;20.73;18.60;;;19.40;99.90;;;;;;4975395;28;20480;-65
2023/09/27 10:18:14;;;;;;;18.60;16.80;;;19.60;99.90;;;;;;4988169;28;20456;-64
2023/09/27 10:21:02;;;;;;;19.33;17.17;;;19.70;99.90;;;;;;4981478;28;20447;-65
2023/09/27 10:23:34;;;;;;;19.70;17.90;;;19.90;99.90;;;;;;4974913;28;20571;-65
2023/09/27 10:26:22;;;;;;;16.70;15.20;;;20.00;99.90;;;;;;4960678;28;20473;-66
2023/09/27 10:29:16;;;;;;;16.27;14.67;;;20.20;99.90;;;;;;4980666;28;20441;-65
2023/09/27 10:32:19;;;;;;;19.70;18.00;;;20.40;99.90;;;;;;4987772;28;20450;-64
2023/09/27 10:34:47;;;;;;;15.03;13.53;;;20.50;99.90;;;;;;4977135;28;20544;-65
2023/09/27 10:37:13;;;;;;;13.83;12.63;;;20.70;99.90;;;;;;4971405;28;20448;-65
2023/09/27 10:39:40;;;;;;;18.20;16.50;;;20.80;99.90;;;;;;4990588;28;20496;-66
2023/09/27 10:42:08;;;;;;;17.13;15.47;;;21.00;99.90;;;;;;4980119;28;20528;-65
2023/09/27 10:44:40;;;;;;;16.57;15.10;;;21.10;99.90;;;;;;4984993;28;20571;-65
2023/09/27 10:47:08;;;;;;;16.57;14.87;;;21.20;99.90;;;;;;4988248;28;20452;-65
2023/09/27 10:49:40;;;;;;;14.70;13.30;;;21.30;99.90;;;;;;4978333;28;20450;-65
2023/09/27 10:52:18;;;;;;;15.10;13.70;;;21.40;99.90;;;;;;4989271;28;20450;-65
2023/09/27 10:54:45;;;;;;;13.87;12.60;;;21.70;99.90;;;;;;4984361;28;20545;-65
2023/09/27 10:57:15;;;;;;;15.00;13.70;;;21.80;99.90;;;;;;4980261;28;20480;-65
2023/09/27 10:59:44;;;;;;;15.60;14.10;;;21.90;99.90;;;;;;4990708;28;20941;-66
2023/09/27 11:02:10;;;;;;;13.47;12.27;;;22.00;99.90;;;;;;4980400;28;20447;-65
2023/09/27 11:04:39;;;;;;;14.37;13.17;;;22.10;99.90;;;;;;4984560;28;20890;-66
2023/09/27 11:07:06;;;;;;;13.07;11.77;;;22.30;99.90;;;;;;4987694;28;20481;-66
2023/09/27 11:09:43;;;;;;;10.53;9.60;;;22.40;99.90;;;;;;4977532;28;20454;-65
2023/09/27 11:12:10;;;;;;;10.73;9.80;;;22.60;99.90;;;;;;4988691;28;20820;-65
2023/09/27 11:14:45;;;;;;;10.60;9.80;;;22.70;99.90;;;;;;4983000;28;20463;-65
2023/09/27 11:17:17;;;;;;;9.70;8.80;;;22.80;99.90;;;;;;4979817;28;21029;-66
2023/09/27 11:19:44;;;;;;;11.17;10.10;;;23.00;99.90;;;;;;4985084;28;20454;-65
2023/09/27 11:22:11;;;;;;;10.10;9.20;;;23.20;99.90;;;;;;4981618;28;20439;-66
2023/09/27 11:24:39;;;;;;;10.30;9.40;;;23.30;99.90;;;;;;4984379;28;20487;-66
2023/09/27 11:27:07;;;;;;;10.90;9.87;;;23.50;99.90;;;;;;4987423;28;20451;-66
2023/09/27 11:29:34;;;;;;;10.60;9.60;;;23.50;99.90;;;;;;4977364;28;20467;-66
2023/09/27 11:32:02;;;;;;;9.07;8.17;;;23.60;99.90;;;;;;4989440;28;20454;-66
2023/09/27 11:34:30;;;;;;;10.37;9.37;;;23.80;99.90;;;;;;4981927;28;20470;-65
2023/09/27 11:36:59;;;;;;;12.20;11.23;;;23.80;99.90;;;;;;4981480;28;20970;-65
2023/09/27 11:39:29;;;;;;;11.17;10.10;;;23.90;99.90;;;;;;4989839;28;20451;-66
2023/09/27 11:41:59;;;;;;;10.77;9.87;;;24.00;99.90;;;;;;4977717;28;20455;-65
2023/09/27 11:44:28;;;;;;;11.43;10.43;;;24.10;99.90;;;;;;4985387;28;20590;-65
2023/09/27 11:47:07;;;;;;;9.37;8.63;;;24.10;99.90;;;;;;4985081;28;20500;-66
2023/09/27 11:49:34;;;;;;;8.47;7.77;;;24.20;99.90;;;;;;4976670;28;20451;-65
2023/09/27 11:52:02;;;;;;;8.60;7.93;;;24.30;99.90;;;;;;4989066;28;20445;-66
2023/09/27 11:54:30;;;;;;;11.00;9.90;;;24.30;99.90;;;;;;4981552;28;20914;-65
2023/09/27 11:56:57;;;;;;;10.40;9.50;;;24.40;99.90;;;;;;4981574;28;20543;-66
2023/09/27 11:59:24;;;;;;;10.77;9.80;;;24.40;99.90;;;;;;4988908;28;20450;-65
2023/09/27 12:01:51;;;;;;;8.80;7.93;;;24.50;99.90;;;;;;4976923;28;20534;-65
2023/09/27 12:04:20;;;;;;;8.90;8.20;;;24.50;99.90;;;;;;4986417;28;20495;-66
2023/09/27 12:06:47;;;;;;;8.60;7.87;;;24.50;99.90;;;;;;4983993;28;20462;-65
2023/09/27 12:09:14;;;;;;;9.90;9.20;;;24.50;99.90;;;;;;4979072;28;20880;-66
2023/09/27 12:11:41;;;;;;;10.70;9.67;;;24.70;99.90;;;;;;4989541;28;20453;-65
2023/09/27 12:14:08;;;;;;;11.73;10.73;;;24.80;99.90;;;;;;4978048;28;20547;-66
2023/09/27 12:16:35;;;;;;;10.17;9.37;;;24.90;99.90;;;;;;4984072;28;20462;-66
2023/09/27 12:19:02;;;;;;;10.47;9.50;;;25.00;99.90;;;;;;4985761;28;20824;-65
2023/09/27 12:21:34;;;;;;;9.13;8.40;;;25.10;99.90;;;;;;4976252;28;20457;-65
2023/09/27 12:24:01;;;;;;;9.23;8.33;;;25.30;99.90;;;;;;4961745;28;20515;-66
2023/09/27 12:26:28;;;;;;;10.30;9.50;;;25.40;99.90;;;;;;4984519;28;20945;-65
2023/09/27 12:28:55;;;;;;;8.53;7.93;;;25.40;99.90;;;;;;4984795;28;20452;-66
2023/09/27 12:31:22;;;;;;;10.17;9.37;;;25.50;99.90;;;;;;4975356;28;20526;-65
2023/09/27 12:33:49;;;;;;;9.57;8.40;;;25.60;99.90;;;;;;4988958;28;20480;-66
2023/09/27 12:36:16;;;;;;;8.83;8.20;;;25.70;99.90;;;;;;4979257;28;21040;-65
2023/09/27 12:38:44;;;;;;;8.40;7.80;;;25.60;99.50;;;;;;4982780;28;20440;-65
2023/09/27 12:41:13;;;;;;;7.70;7.20;;;25.60;99.90;;;;;;4986384;28;20454;-65